Time;durP1;ratioP1;P1;durP2;ratioP2;P2;SDS_P1;SDS_P2;PMS_P1;PMS_P2;Temp;Humidity;BMP_temperature;BMP_pressure;BME280_temperature;BME280_humidity;BME280_pressure;Samples;Min_cycle;Max_cycle;Signal;HPM_P1;HPM_P2
2023/04/22 00:01:41;;;;;;;15.48;9.52;;;11.90;98.70;;;;;;5051071;28;20024;-77
2023/04/22 00:04:07;;;;;;;17.42;10.35;;;11.80;98.80;;;;;;5067281;28;20051;-76
2023/04/22 00:06:33;;;;;;;22.15;12.48;;;11.80;98.80;;;;;;5070739;28;20032;-76
2023/04/22 00:08:59;;;;;;;30.20;16.70;;;11.80;98.80;;;;;;5068007;28;20017;-75
2023/04/22 00:11:25;;;;;;;21.08;14.70;;;11.80;98.70;;;;;;5070708;28;20048;-76
2023/04/22 00:13:51;;;;;;;17.83;12.15;;;11.70;98.70;;;;;;5068563;28;20063;-76
2023/04/22 00:16:16;;;;;;;19.83;12.80;;;11.70;98.80;;;;;;5070758;28;20044;-76
2023/04/22 00:18:42;;;;;;;15.82;10.27;;;11.60;98.90;;;;;;5068909;28;20009;-76
2023/04/22 00:21:07;;;;;;;15.68;10.90;;;11.50;99.00;;;;;;5068101;28;20368;-76
2023/04/22 00:23:33;;;;;;;12.43;9.73;;;11.50;99.10;;;;;;5070625;28;20524;-76
2023/04/22 00:26:00;;;;;;;11.30;8.10;;;11.50;99.10;;;;;;5068779;28;20044;-75
2023/04/22 00:28:26;;;;;;;14.07;9.93;;;11.50;99.20;;;;;;5066744;28;20036;-75
2023/04/22 00:30:51;;;;;;;10.68;8.57;;;11.40;99.30;;;;;;5069556;28;20032;-76
2023/04/22 00:33:17;;;;;;;12.60;9.32;;;11.40;99.40;;;;;;5069986;28;20467;-76
2023/04/22 00:35:45;;;;;;;28.42;16.20;;;11.40;99.40;;;;;;5068029;28;20082;-75
2023/04/22 00:38:10;;;;;;;18.98;11.35;;;11.30;99.50;;;;;;5055580;28;20028;-76
2023/04/22 00:40:36;;;;;;;11.50;8.02;;;11.30;99.60;;;;;;5068215;28;20024;-76
2023/04/22 00:43:02;;;;;;;12.88;8.13;;;11.30;99.60;;;;;;5070127;28;20493;-75
2023/04/22 00:45:29;;;;;;;9.32;6.65;;;11.30;99.60;;;;;;5069688;28;20021;-77
2023/04/22 00:47:56;;;;;;;11.75;7.90;;;11.30;99.50;;;;;;5069660;28;20045;-76
2023/04/22 00:50:22;;;;;;;15.30;9.50;;;11.20;99.50;;;;;;5068453;28;20032;-77
2023/04/22 00:52:47;;;;;;;11.50;7.88;;;11.20;99.60;;;;;;5066359;28;20491;-76
2023/04/22 00:55:14;;;;;;;11.57;8.18;;;11.20;99.60;;;;;;5061800;28;20036;-76
2023/04/22 00:57:40;;;;;;;9.98;7.00;;;11.20;99.60;;;;;;5068561;28;20024;-76
2023/04/22 01:00:08;;;;;;;11.65;7.95;;;11.20;99.60;;;;;;5069944;28;20020;-75
2023/04/22 01:02:35;;;;;;;15.77;8.73;;;11.20;99.60;;;;;;5065680;28;20035;-76
2023/04/22 01:05:02;;;;;;;9.65;7.10;;;11.20;99.60;;;;;;5072248;28;20025;-74
2023/04/22 01:07:28;;;;;;;11.00;7.47;;;11.10;99.60;;;;;;5067761;28;20029;-75
2023/04/22 01:09:54;;;;;;;11.43;8.63;;;11.10;99.60;;;;;;5070369;28;20481;-76
2023/04/22 01:12:19;;;;;;;10.98;8.55;;;11.10;99.60;;;;;;5058672;28;20460;-75
2023/04/22 01:14:45;;;;;;;11.98;8.35;;;11.10;99.60;;;;;;5068345;28;20036;-76
2023/04/22 01:17:12;;;;;;;14.68;10.80;;;11.10;99.60;;;;;;5067845;28;20016;-76
2023/04/22 01:19:38;;;;;;;10.65;7.32;;;11.10;99.70;;;;;;5059698;28;20030;-77
2023/04/22 01:22:06;;;;;;;13.90;9.60;;;11.00;99.70;;;;;;5064711;28;20078;-76
2023/04/22 01:24:33;;;;;;;13.20;8.98;;;11.00;99.80;;;;;;5049923;28;20820;-76
2023/04/22 01:26:59;;;;;;;15.10;11.27;;;11.00;99.90;;;;;;5064258;28;20037;-76
2023/04/22 01:29:25;;;;;;;13.95;9.10;;;11.00;99.90;;;;;;5069697;28;20021;-76
2023/04/22 01:31:51;;;;;;;13.30;10.15;;;11.00;99.90;;;;;;5068939;28;20028;-76
2023/04/22 01:34:17;;;;;;;12.98;11.25;;;10.90;99.90;;;;;;5069082;28;20028;-75
2023/04/22 01:36:43;;;;;;;16.90;11.27;;;10.90;99.90;;;;;;5069432;28;20028;-76
2023/04/22 01:39:09;;;;;;;16.20;10.65;;;10.90;99.90;;;;;;5067816;28;20074;-76
2023/04/22 01:41:35;;;;;;;14.27;11.48;;;11.00;99.90;;;;;;5068475;28;20059;-76
2023/04/22 01:44:02;;;;;;;14.57;12.00;;;11.00;99.90;;;;;;5067785;28;20024;-76
2023/04/22 01:46:28;;;;;;;15.35;11.88;;;11.00;99.90;;;;;;5069739;28;20035;-78
2023/04/22 01:48:53;;;;;;;16.35;13.57;;;10.90;99.90;;;;;;5068784;28;20021;-77
2023/04/22 01:51:19;;;;;;;18.05;14.15;;;10.90;99.90;;;;;;5067606;28;20024;-75
2023/04/22 01:53:46;;;;;;;15.13;12.02;;;10.90;99.90;;;;;;5069104;28;20124;-76
2023/04/22 01:56:12;;;;;;;16.65;10.48;;;10.90;99.90;;;;;;5068598;28;20499;-76
2023/04/22 01:58:39;;;;;;;14.25;10.10;;;10.90;99.90;;;;;;5068836;28;20028;-76
2023/04/22 02:01:05;;;;;;;16.40;12.70;;;10.90;99.90;;;;;;5069725;28;20031;-75
2023/04/22 02:03:31;;;;;;;15.45;12.90;;;10.90;99.90;;;;;;5065413;28;20089;-76
2023/04/22 02:05:57;;;;;;;18.63;13.45;;;10.90;99.90;;;;;;5069898;28;20052;-75
2023/04/22 02:08:22;;;;;;;17.60;12.65;;;10.90;99.90;;;;;;5069642;28;20378;-76
2023/04/22 02:10:48;;;;;;;17.45;13.38;;;10.90;99.90;;;;;;5068403;28;20021;-76
2023/04/22 02:13:14;;;;;;;20.55;14.38;;;10.90;99.90;;;;;;5067152;28;20028;-76
2023/04/22 02:15:40;;;;;;;18.10;13.32;;;10.80;99.90;;;;;;5070109;28;20119;-76
2023/04/22 02:18:06;;;;;;;16.38;13.43;;;10.80;99.90;;;;;;5069409;28;20158;-76
2023/04/22 02:20:32;;;;;;;18.70;13.30;;;10.90;99.90;;;;;;5068318;28;20017;-76
2023/04/22 02:22:58;;;;;;;16.90;13.77;;;10.90;99.90;;;;;;5069449;28;20020;-75
2023/04/22 02:25:24;;;;;;;17.83;13.30;;;10.90;99.90;;;;;;5069644;28;20024;-76
2023/04/22 02:27:49;;;;;;;18.25;14.13;;;10.90;99.90;;;;;;5067490;28;20085;-76
2023/04/22 02:30:15;;;;;;;18.30;15.50;;;10.90;99.90;;;;;;5058304;28;20032;-75
2023/04/22 02:32:41;;;;;;;21.35;16.42;;;10.90;99.90;;;;;;5065862;28;20020;-76
2023/04/22 02:35:06;;;;;;;21.25;15.80;;;10.90;99.90;;;;;;5059962;28;20045;-75
2023/04/22 02:37:32;;;;;;;23.70;18.20;;;10.90;99.90;;;;;;5057203;28;20016;-74
2023/04/22 02:39:58;;;;;;;18.65;15.35;;;10.90;99.90;;;;;;5062206;28;20017;-74
2023/04/22 02:42:23;;;;;;;19.95;15.48;;;10.90;99.90;;;;;;5061450;28;20028;-75
2023/04/22 02:44:49;;;;;;;23.77;18.30;;;10.90;99.90;;;;;;5067291;28;20029;-76
2023/04/22 02:47:15;;;;;;;22.67;16.70;;;10.90;99.90;;;;;;5069062;28;20082;-75
2023/04/22 02:49:41;;;;;;;21.73;16.30;;;10.90;99.90;;;;;;5069110;28;20044;-74
2023/04/22 02:52:07;;;;;;;17.50;14.27;;;10.90;99.90;;;;;;5069630;28;20055;-75
2023/04/22 02:54:32;;;;;;;23.23;16.90;;;10.90;99.90;;;;;;5071352;28;20543;-76
2023/04/22 02:56:58;;;;;;;24.48;19.98;;;10.90;99.90;;;;;;5073398;28;20060;-75
2023/04/22 02:59:23;;;;;;;24.00;18.27;;;10.90;99.90;;;;;;5067361;28;20021;-76
2023/04/22 03:01:49;;;;;;;24.20;18.33;;;10.90;99.90;;;;;;5069539;28;20094;-76
2023/04/22 03:04:15;;;;;;;23.90;18.70;;;11.00;99.90;;;;;;5067936;28;20124;-74
2023/04/22 03:06:40;;;;;;;23.98;18.17;;;11.00;99.90;;;;;;5061084;28;20048;-76
2023/04/22 03:09:06;;;;;;;29.15;22.27;;;11.00;99.90;;;;;;5057318;28;20012;-76
2023/04/22 03:11:31;;;;;;;23.70;16.90;;;11.00;99.90;;;;;;5073417;28;20032;-76
2023/04/22 03:13:57;;;;;;;27.27;20.70;;;11.00;99.90;;;;;;5072933;28;20032;-76
2023/04/22 03:16:23;;;;;;;25.05;19.45;;;11.00;99.90;;;;;;5073538;28;20059;-75
2023/04/22 03:18:49;;;;;;;26.77;21.17;;;11.00;99.90;;;;;;5070225;28;20017;-76
2023/04/22 03:21:14;;;;;;;24.85;18.30;;;11.00;99.90;;;;;;5073278;28;20073;-76
2023/04/22 03:23:40;;;;;;;21.52;16.20;;;11.00;99.90;;;;;;5073449;28;20028;-75
2023/04/22 03:26:06;;;;;;;23.42;18.38;;;11.00;99.90;;;;;;5064209;28;20520;-76
2023/04/22 03:28:32;;;;;;;23.55;19.02;;;11.00;99.90;;;;;;5071035;28;20028;-75
2023/04/22 03:30:57;;;;;;;24.42;18.75;;;11.10;99.90;;;;;;5073250;28;20024;-76
2023/04/22 03:33:23;;;;;;;27.92;19.80;;;11.00;99.90;;;;;;5069162;28;20056;-75
2023/04/22 03:35:50;;;;;;;27.25;20.02;;;11.10;99.90;;;;;;5074222;28;20386;-75
2023/04/22 03:38:16;;;;;;;28.02;20.30;;;11.10;99.90;;;;;;5062927;28;20035;-75
2023/04/22 03:40:42;;;;;;;22.92;18.42;;;11.10;99.90;;;;;;5066461;28;20025;-76
2023/04/22 03:43:08;;;;;;;22.98;19.55;;;11.10;99.90;;;;;;5073263;28;20154;-76
2023/04/22 03:45:34;;;;;;;22.10;17.55;;;11.10;99.90;;;;;;5072184;28;20107;-75
2023/04/22 03:47:59;;;;;;;23.33;18.05;;;11.10;99.90;;;;;;5072147;28;20020;-74
2023/04/22 03:50:25;;;;;;;24.13;19.50;;;11.20;99.90;;;;;;5069726;28;20020;-75
2023/04/22 03:52:51;;;;;;;27.40;18.08;;;11.20;99.90;;;;;;5069178;28;20024;-76
2023/04/22 03:55:16;;;;;;;27.23;21.00;;;11.20;99.90;;;;;;5070963;28;20078;-75
2023/04/22 03:57:42;;;;;;;27.48;20.95;;;11.20;99.90;;;;;;5071057;28;20356;-76
2023/04/22 04:00:08;;;;;;;23.48;18.17;;;11.20;99.90;;;;;;5068332;28;20020;-76
2023/04/22 04:02:33;;;;;;;25.83;19.10;;;11.20;99.90;;;;;;5067071;28;20320;-77
2023/04/22 04:05:00;;;;;;;22.88;17.33;;;11.20;99.90;;;;;;5070202;28;20024;-76
2023/04/22 04:07:26;;;;;;;28.60;22.25;;;11.20;99.90;;;;;;5060221;28;20074;-75
2023/04/22 04:09:52;;;;;;;21.90;18.15;;;11.20;99.90;;;;;;5069831;28;20017;-76
2023/04/22 04:12:17;;;;;;;28.15;20.95;;;11.20;99.90;;;;;;5069558;28;20052;-75
2023/04/22 04:14:43;;;;;;;26.73;20.25;;;11.20;99.90;;;;;;5059771;28;20048;-75
2023/04/22 04:17:09;;;;;;;26.38;20.48;;;11.20;99.90;;;;;;5070857;28;20013;-75
2023/04/22 04:19:37;;;;;;;23.90;18.60;;;11.20;99.90;;;;;;5068568;28;20021;-75
2023/04/22 04:22:03;;;;;;;27.13;20.45;;;11.20;99.90;;;;;;5068983;28;20044;-75
2023/04/22 04:24:28;;;;;;;23.58;19.00;;;11.20;99.90;;;;;;5063316;28;20067;-74
2023/04/22 04:26:54;;;;;;;29.25;23.13;;;11.10;99.90;;;;;;5061177;28;20500;-76
2023/04/22 04:29:19;;;;;;;31.27;23.30;;;11.20;99.90;;;;;;5068785;28;20443;-74
2023/04/22 04:31:45;;;;;;;27.92;19.80;;;11.20;99.90;;;;;;5069442;28;20035;-74
2023/04/22 04:34:11;;;;;;;26.23;19.52;;;11.20;99.90;;;;;;5070812;28;20021;-75
2023/04/22 04:36:38;;;;;;;17.35;13.15;;;11.20;99.90;;;;;;5063794;28;20111;-75
2023/04/22 04:39:05;;;;;;;32.15;24.25;;;11.20;99.90;;;;;;5066484;28;20044;-75
2023/04/22 04:41:30;;;;;;;25.60;18.20;;;11.20;99.90;;;;;;5067433;28;20020;-75
2023/04/22 04:43:59;;;;;;;27.92;21.73;;;11.20;99.90;;;;;;5053878;28;20399;-75
2023/04/22 04:46:28;;;;;;;31.58;19.55;;;11.20;99.90;;;;;;5067500;28;20025;-75
2023/04/22 04:48:57;;;;;;;25.40;20.17;;;11.30;99.90;;;;;;5064454;28;20349;-76
2023/04/22 04:51:23;;;;;;;30.50;23.52;;;11.30;99.90;;;;;;5047357;28;20032;-75
2023/04/22 04:53:49;;;;;;;26.83;20.90;;;11.30;99.90;;;;;;5062356;28;20316;-76
2023/04/22 04:56:15;;;;;;;28.95;22.73;;;11.40;99.90;;;;;;5069047;28;20141;-75
2023/04/22 04:58:41;;;;;;;33.08;23.05;;;11.40;99.90;;;;;;5067269;28;20036;-76
2023/04/22 05:01:06;;;;;;;26.55;20.33;;;11.40;99.90;;;;;;5066477;28;20025;-75
2023/04/22 05:03:32;;;;;;;31.38;23.60;;;11.50;99.90;;;;;;5067030;28;20047;-76
2023/04/22 05:05:58;;;;;;;27.02;21.02;;;11.50;99.90;;;;;;5068787;28;20102;-74
2023/04/22 05:08:23;;;;;;;31.48;24.40;;;11.50;99.90;;;;;;5069134;28;20016;-75
2023/04/22 05:10:49;;;;;;;33.38;25.25;;;11.50;99.90;;;;;;5067423;28;20113;-75
2023/04/22 05:13:15;;;;;;;30.90;25.10;;;11.50;99.90;;;;;;5067248;28;20039;-76
2023/04/22 05:15:40;;;;;;;32.10;25.45;;;11.50;99.90;;;;;;5067521;28;20032;-76
2023/04/22 05:18:06;;;;;;;32.63;25.00;;;11.50;99.90;;;;;;5068138;28;20081;-76
2023/04/22 05:20:31;;;;;;;31.52;24.15;;;11.60;99.90;;;;;;5059999;28;20021;-75
2023/04/22 05:22:57;;;;;;;32.50;26.58;;;11.60;99.90;;;;;;5051064;28;20171;-75
2023/04/22 05:25:23;;;;;;;30.23;23.02;;;11.60;99.90;;;;;;5067430;28;20083;-76
2023/04/22 05:27:48;;;;;;;28.83;21.75;;;11.60;99.90;;;;;;5068533;28;20027;-76
2023/04/22 05:30:15;;;;;;;31.92;24.63;;;11.70;99.90;;;;;;5066880;28;20021;-75
2023/04/22 05:32:40;;;;;;;30.55;24.13;;;11.70;99.90;;;;;;5061980;28;20049;-76
2023/04/22 05:35:06;;;;;;;31.20;25.75;;;11.70;99.90;;;;;;5063437;28;20170;-75
2023/04/22 05:37:33;;;;;;;32.35;24.25;;;11.70;99.90;;;;;;5069322;28;20024;-75
2023/04/22 05:39:58;;;;;;;32.33;26.00;;;11.80;99.90;;;;;;5069262;28;20029;-76
2023/04/22 05:42:25;;;;;;;31.80;24.95;;;11.80;99.90;;;;;;5068652;28;20138;-74
2023/04/22 05:44:51;;;;;;;31.17;24.25;;;11.80;99.90;;;;;;5068658;28;20163;-76
2023/04/22 05:47:16;;;;;;;32.83;26.80;;;11.90;99.90;;;;;;5068936;28;20099;-76
2023/04/22 05:49:42;;;;;;;27.73;22.77;;;11.90;99.90;;;;;;5046801;28;20021;-75
2023/04/22 05:52:08;;;;;;;31.50;24.38;;;12.00;99.90;;;;;;5067904;28;20875;-77
2023/04/22 05:54:33;;;;;;;26.10;22.52;;;11.90;99.90;;;;;;5068633;28;20024;-75
2023/04/22 05:56:59;;;;;;;31.65;25.30;;;11.90;99.90;;;;;;5058425;28;20028;-75
2023/04/22 05:59:25;;;;;;;30.70;23.80;;;12.00;99.90;;;;;;5064389;28;20021;-75
2023/04/22 06:01:51;;;;;;;33.28;25.33;;;12.00;99.90;;;;;;5061672;28;20495;-75
2023/04/22 06:04:17;;;;;;;35.30;27.15;;;12.00;99.90;;;;;;5051718;28;20043;-75
2023/04/22 06:06:43;;;;;;;33.40;25.30;;;12.00;99.90;;;;;;5075424;28;20024;-75
2023/04/22 06:09:08;;;;;;;31.23;25.25;;;12.00;99.90;;;;;;5069114;28;20776;-75
2023/04/22 06:11:34;;;;;;;37.55;30.33;;;12.00;99.90;;;;;;5070359;28;20103;-76
2023/04/22 06:14:00;;;;;;;35.65;29.80;;;12.10;99.90;;;;;;5072928;28;20467;-76
2023/04/22 06:16:26;;;;;;;41.67;29.10;;;12.10;99.90;;;;;;5072167;28;20036;-78
2023/04/22 06:18:52;;;;;;;32.63;26.25;;;12.40;99.90;;;;;;5067555;28;20094;-76
2023/04/22 06:21:19;;;;;;;29.42;24.42;;;12.70;99.90;;;;;;5058343;28;20021;-77
2023/04/22 06:23:45;;;;;;;28.30;20.50;;;13.00;99.90;;;;;;5065067;28;20078;-77
2023/04/22 06:26:11;;;;;;;30.00;21.95;;;13.10;99.90;;;;;;5065791;28;20029;-76
2023/04/22 06:28:36;;;;;;;30.40;24.02;;;13.30;99.90;;;;;;5050889;28;20036;-75
2023/04/22 06:31:02;;;;;;;22.67;18.23;;;13.40;99.90;;;;;;5064696;28;20021;-76
2023/04/22 06:33:28;;;;;;;27.52;20.05;;;13.40;99.90;;;;;;5067088;28;20111;-75
2023/04/22 06:35:56;;;;;;;27.40;22.75;;;13.40;99.90;;;;;;5053280;28;20470;-76
2023/04/22 06:38:22;;;;;;;18.40;11.07;;;13.50;99.90;;;;;;5064131;28;20119;-76
2023/04/22 06:40:47;;;;;;;8.90;5.70;;;13.50;99.70;;;;;;5053095;28;20104;-76
2023/04/22 06:43:13;;;;;;;18.08;14.30;;;13.80;97.50;;;;;;5066673;28;20024;-77
2023/04/22 06:45:39;;;;;;;25.17;17.42;;;14.00;97.80;;;;;;5060339;28;20085;-77
2023/04/22 06:48:04;;;;;;;23.58;18.65;;;14.20;98.10;;;;;;5057944;28;20024;-77
2023/04/22 06:50:30;;;;;;;20.38;16.65;;;14.30;98.10;;;;;;5067081;28;20032;-77
2023/04/22 06:52:55;;;;;;;21.15;17.27;;;14.30;97.90;;;;;;5066799;28;20548;-76
2023/04/22 06:55:21;;;;;;;22.85;18.05;;;14.30;98.30;;;;;;5059998;28;20041;-76
2023/04/22 06:57:47;;;;;;;22.88;19.00;;;14.40;98.30;;;;;;5051427;28;20029;-76
2023/04/22 07:00:13;;;;;;;19.15;14.85;;;14.40;98.30;;;;;;5061742;28;20063;-77
2023/04/22 07:02:38;;;;;;;20.85;16.45;;;14.40;98.20;;;;;;5065494;28;20071;-77
2023/04/22 07:05:04;;;;;;;23.92;18.15;;;14.40;98.20;;;;;;5066811;28;20422;-76
2023/04/22 07:07:30;;;;;;;24.83;16.85;;;14.30;98.00;;;;;;5062797;28;20023;-76
2023/04/22 07:09:56;;;;;;;20.75;16.98;;;14.30;98.20;;;;;;5062127;28;20052;-77
2023/04/22 07:12:24;;;;;;;18.60;14.80;;;14.40;98.20;;;;;;5067040;28;20113;-76
2023/04/22 07:14:50;;;;;;;19.08;15.13;;;14.50;98.10;;;;;;5066874;28;20024;-77
2023/04/22 07:17:18;;;;;;;21.27;16.73;;;14.50;97.80;;;;;;5066471;28;20567;-77
2023/04/22 07:19:43;;;;;;;22.15;17.95;;;14.50;97.70;;;;;;5065276;28;20024;-76
2023/04/22 07:22:09;;;;;;;20.58;15.57;;;14.40;97.10;;;;;;5067599;28;20013;-76
2023/04/22 07:24:35;;;;;;;24.20;17.27;;;14.40;97.30;;;;;;5060424;28;20434;-76
2023/04/22 07:27:01;;;;;;;17.80;13.35;;;14.40;97.00;;;;;;5060661;28;20032;-76
2023/04/22 07:29:27;;;;;;;16.92;13.77;;;14.50;97.10;;;;;;5061494;28;20158;-76
2023/04/22 07:31:53;;;;;;;20.25;15.55;;;14.60;97.00;;;;;;5061245;28;20021;-77
2023/04/22 07:34:19;;;;;;;17.80;13.63;;;14.70;96.60;;;;;;5062043;28;20027;-76
2023/04/22 07:36:44;;;;;;;18.90;14.13;;;14.60;96.40;;;;;;5063952;28;20036;-76
2023/04/22 07:39:10;;;;;;;18.77;14.93;;;14.70;96.40;;;;;;5062101;28;20028;-74
2023/04/22 07:41:36;;;;;;;18.45;13.63;;;14.70;96.30;;;;;;5063811;28;20124;-75
2023/04/22 07:44:04;;;;;;;17.60;12.07;;;14.80;96.20;;;;;;5069135;28;20463;-75
2023/04/22 07:46:30;;;;;;;18.85;14.13;;;14.90;96.20;;;;;;5068064;28;20471;-74
2023/04/22 07:48:55;;;;;;;17.13;13.90;;;14.90;95.90;;;;;;5068446;28;20017;-77
2023/04/22 07:51:21;;;;;;;15.70;12.07;;;15.00;96.20;;;;;;5068591;28;20027;-77
2023/04/22 07:53:47;;;;;;;21.40;15.50;;;15.20;95.80;;;;;;5067453;28;20028;-76
2023/04/22 07:56:12;;;;;;;17.67;13.65;;;15.30;95.80;;;;;;5062489;28;20123;-77
2023/04/22 07:58:38;;;;;;;17.10;12.15;;;15.40;95.80;;;;;;5068817;28;20676;-75
2023/04/22 08:01:04;;;;;;;16.70;13.05;;;15.50;95.80;;;;;;5061806;28;20070;-77
2023/04/22 08:03:29;;;;;;;15.27;11.45;;;15.60;95.70;;;;;;5050388;28;20205;-76
2023/04/22 08:05:57;;;;;;;14.80;11.07;;;15.70;95.70;;;;;;5067256;28;20170;-77
2023/04/22 08:08:23;;;;;;;18.58;13.85;;;15.80;95.80;;;;;;5069202;28;20031;-77
2023/04/22 08:10:48;;;;;;;18.30;13.25;;;16.00;95.10;;;;;;5070805;28;20024;-77
2023/04/22 08:13:14;;;;;;;18.35;15.65;;;16.10;94.90;;;;;;5070199;28;20048;-76
2023/04/22 08:15:39;;;;;;;15.13;9.93;;;16.20;94.90;;;;;;5058479;28;20097;-77
2023/04/22 08:18:05;;;;;;;15.27;11.60;;;16.30;94.70;;;;;;5069805;28;20032;-75
2023/04/22 08:20:31;;;;;;;15.90;11.95;;;16.40;94.40;;;;;;5067156;28;20020;-76
2023/04/22 08:22:59;;;;;;;15.70;12.52;;;16.50;94.60;;;;;;5055316;28;20029;-76
2023/04/22 08:25:26;;;;;;;14.90;12.15;;;16.60;93.80;;;;;;5068711;28;20154;-76
2023/04/22 08:27:51;;;;;;;13.07;9.70;;;16.60;93.60;;;;;;5065809;28;20096;-76
2023/04/22 08:30:17;;;;;;;10.57;8.02;;;16.70;93.70;;;;;;5066184;28;20044;-78
2023/04/22 08:32:43;;;;;;;13.43;8.95;;;16.80;93.50;;;;;;5074985;28;20094;-77
2023/04/22 08:35:08;;;;;;;11.90;9.82;;;16.90;93.60;;;;;;5074357;28;20024;-78
2023/04/22 08:37:34;;;;;;;12.43;8.43;;;17.00;93.10;;;;;;5068455;28;20019;-76
2023/04/22 08:40:00;;;;;;;12.77;9.18;;;17.10;93.30;;;;;;5068904;28;20051;-77
2023/04/22 08:42:26;;;;;;;13.98;9.60;;;17.20;93.00;;;;;;5069320;28;20441;-77
2023/04/22 08:44:53;;;;;;;10.52;7.82;;;17.30;93.20;;;;;;5068242;28;20181;-77
2023/04/22 08:47:20;;;;;;;12.38;9.02;;;17.40;92.70;;;;;;5057670;28;20032;-77
2023/04/22 08:49:46;;;;;;;14.20;10.82;;;17.40;92.50;;;;;;5069599;28;20056;-76
2023/04/22 08:52:14;;;;;;;13.68;9.82;;;17.50;92.30;;;;;;5064273;28;20016;-78
2023/04/22 08:54:40;;;;;;;12.73;8.93;;;17.60;92.30;;;;;;5065212;28;20032;-76
2023/04/22 08:57:08;;;;;;;9.88;7.10;;;17.70;92.20;;;;;;5068576;28;20486;-78
2023/04/22 08:59:35;;;;;;;9.30;7.10;;;17.80;92.20;;;;;;5069775;28;20554;-77
2023/04/22 09:02:01;;;;;;;9.70;6.85;;;17.80;91.90;;;;;;5071852;28;20077;-77
2023/04/22 09:04:28;;;;;;;9.88;7.25;;;17.90;92.10;;;;;;5064406;28;20059;-78
2023/04/22 09:06:54;;;;;;;9.75;6.45;;;18.10;91.80;;;;;;5068738;28;20024;-78
2023/04/22 09:09:20;;;;;;;9.75;5.95;;;18.20;92.00;;;;;;5066589;28;20021;-77
2023/04/22 09:11:46;;;;;;;7.60;5.97;;;18.40;91.50;;;;;;5069507;28;20126;-78
2023/04/22 09:14:12;;;;;;;7.75;5.55;;;18.60;91.60;;;;;;5067495;28;20438;-79
2023/04/22 09:16:46;;;;;;;10.70;5.57;;;18.70;91.30;;;;;;5064554;28;20123;-77
2023/04/22 09:19:12;;;;;;;8.77;6.25;;;18.80;91.50;;;;;;5068786;28;20463;-78
2023/04/22 09:21:41;;;;;;;6.80;4.72;;;18.90;91.30;;;;;;5064955;28;20478;-77
2023/04/22 09:24:09;;;;;;;8.15;5.63;;;19.00;91.30;;;;;;5069634;28;20059;-76
2023/04/22 09:26:40;;;;;;;8.27;5.30;;;19.30;91.50;;;;;;5066628;28;20151;-78
2023/04/22 09:29:08;;;;;;;6.22;4.53;;;19.60;91.40;;;;;;5069124;28;20342;-77
2023/04/22 09:31:36;;;;;;;8.23;4.18;;;19.80;90.70;;;;;;5068601;28;20301;-76
2023/04/22 09:34:03;;;;;;;6.43;3.88;;;19.90;90.60;;;;;;5068099;28;20617;-82
2023/04/22 09:36:32;;;;;;;6.85;4.20;;;20.00;90.10;;;;;;5057530;28;20105;-77
2023/04/22 09:39:06;;;;;;;6.45;4.22;;;20.10;89.90;;;;;;5068618;28;20023;-78
2023/04/22 09:41:39;;;;;;;6.60;3.75;;;20.10;89.90;;;;;;5066517;28;20111;-78
2023/04/22 09:44:16;;;;;;;8.57;5.70;;;20.20;89.80;;;;;;5063296;28;20025;-75
2023/04/22 09:46:43;;;;;;;6.93;4.68;;;20.30;88.70;;;;;;5068323;28;20020;-81
2023/04/22 09:49:11;;;;;;;6.47;4.70;;;20.30;89.10;;;;;;5069176;28;20020;-82
2023/04/22 09:51:41;;;;;;;8.15;5.80;;;20.40;88.10;;;;;;5067622;28;20028;-80
2023/04/22 09:54:09;;;;;;;6.43;4.60;;;20.40;86.90;;;;;;5071345;28;20414;-82
2023/04/22 09:56:46;;;;;;;6.50;4.63;;;20.40;87.70;;;;;;5070289;28;20039;-86
2023/04/22 09:59:13;;;;;;;5.18;3.25;;;20.50;88.10;;;;;;5067931;28;20016;-83
2023/04/22 10:01:41;;;;;;;5.60;3.10;;;20.70;89.60;;;;;;5066652;28;20024;-85
2023/04/22 10:04:13;;;;;;;5.43;3.45;;;20.70;90.00;;;;;;5060242;28;20052;-83
2023/04/22 10:06:41;;;;;;;6.70;3.13;;;20.80;90.40;;;;;;5068321;28;20458;-82
2023/04/22 10:09:08;;;;;;;6.38;2.95;;;20.90;90.50;;;;;;5065116;28;20020;-81
2023/04/22 10:11:34;;;;;;;5.50;2.60;;;21.00;90.50;;;;;;5072308;28;20024;-81
2023/04/22 10:14:00;;;;;;;5.60;2.70;;;21.10;90.60;;;;;;5068636;28;20016;-82
2023/04/22 10:16:30;;;;;;;4.82;2.85;;;21.10;90.60;;;;;;5063242;28;20047;-82
2023/04/22 10:18:59;;;;;;;5.68;2.70;;;21.20;90.50;;;;;;5061682;28;20032;-82
2023/04/22 10:21:26;;;;;;;5.05;3.03;;;21.20;90.70;;;;;;5060390;28;20016;-81
2023/04/22 10:23:53;;;;;;;5.05;2.92;;;21.20;90.80;;;;;;5061436;28;20031;-82
2023/04/22 10:26:38;;;;;;;6.55;3.55;;;21.30;90.60;;;;;;5059307;28;20116;-81
2023/04/22 10:29:11;;;;;;;5.75;3.25;;;21.40;90.50;;;;;;5055481;28;20032;-81
2023/04/22 10:31:37;;;;;;;5.30;3.05;;;21.40;90.50;;;;;;5058599;28;20029;-83
2023/04/22 10:34:16;;;;;;;6.30;3.40;;;21.40;90.70;;;;;;5059416;28;20097;-82
2023/04/22 10:36:52;;;;;;;5.47;2.70;;;21.50;90.80;;;;;;5057948;28;20113;-83
2023/04/22 10:39:20;;;;;;;5.68;3.38;;;21.80;90.70;;;;;;5058791;28;20028;-81
2023/04/22 10:41:55;;;;;;;4.72;2.80;;;21.90;90.00;;;;;;5059749;28;20021;-81
2023/04/22 10:44:21;;;;;;;9.23;3.35;;;22.00;90.30;;;;;;5065674;28;20037;-82
2023/04/22 10:46:50;;;;;;;6.15;3.58;;;22.00;90.20;;;;;;5069393;28;20032;-82
2023/04/22 10:49:22;;;;;;;5.10;3.23;;;22.00;90.10;;;;;;5072833;28;20552;-80
2023/04/22 10:51:58;;;;;;;6.72;4.00;;;22.10;90.20;;;;;;5063478;28;20036;-78
2023/04/22 10:54:27;;;;;;;5.35;3.20;;;22.10;89.70;;;;;;5066273;28;20041;-80
2023/04/22 10:57:06;;;;;;;6.82;3.03;;;22.00;90.50;;;;;;5060425;28;20020;-79
2023/04/22 10:59:44;;;;;;;5.43;3.22;;;22.10;91.00;;;;;;5068995;28;20028;-78
2023/04/22 11:02:13;;;;;;;4.95;3.08;;;22.20;90.80;;;;;;5063170;28;20020;-79
2023/04/22 11:04:39;;;;;;;4.97;3.08;;;22.20;90.90;;;;;;5066355;28;20124;-78
2023/04/22 11:07:21;;;;;;;6.53;3.53;;;22.20;91.10;;;;;;5070391;28;20487;-80
2023/04/22 11:09:57;;;;;;;5.68;3.08;;;22.20;91.30;;;;;;5069933;28;20537;-79
2023/04/22 11:12:37;;;;;;;6.75;3.35;;;22.30;91.00;;;;;;5060739;28;20368;-79
2023/04/22 11:15:21;;;;;;;5.50;3.50;;;22.50;91.20;;;;;;5058410;28;20036;-78
2023/04/22 11:17:51;;;;;;;5.00;2.95;;;22.40;90.70;;;;;;5070259;28;20032;-79
2023/04/22 11:20:17;;;;;;;4.60;2.70;;;22.20;91.30;;;;;;5072028;28;20445;-78
2023/04/22 11:22:54;;;;;;;4.50;2.28;;;22.10;91.60;;;;;;5085899;28;20122;-80
2023/04/22 11:25:21;;;;;;;5.50;2.92;;;22.00;92.20;;;;;;5068979;28;20036;-79
2023/04/22 11:27:46;;;;;;;6.32;3.20;;;21.90;92.20;;;;;;5072441;28;20028;-79
2023/04/22 11:30:24;;;;;;;6.35;3.63;;;21.70;91.80;;;;;;5069607;28;20131;-76
2023/04/22 11:32:54;;;;;;;7.50;4.10;;;21.60;91.60;;;;;;5070874;28;20486;-77
2023/04/22 11:35:31;;;;;;;6.95;4.80;;;21.40;91.50;;;;;;5070747;28;20522;-79
2023/04/22 11:37:58;;;;;;;7.22;4.10;;;21.20;90.60;;;;;;5070307;28;20055;-79
2023/04/22 11:40:30;;;;;;;7.65;4.35;;;21.10;91.30;;;;;;5071922;28;20024;-77
2023/04/22 11:42:56;;;;;;;6.32;4.60;;;20.90;91.60;;;;;;5070439;28;20028;-77
2023/04/22 11:45:23;;;;;;;7.80;4.13;;;20.80;91.10;;;;;;5072219;28;20035;-76
2023/04/22 11:47:50;;;;;;;9.43;6.25;;;20.70;90.60;;;;;;5072401;28;20077;-76
2023/04/22 11:50:19;;;;;;;5.03;2.85;;;20.60;90.30;;;;;;5071149;28;20021;-77
2023/04/22 11:52:55;;;;;;;7.28;3.92;;;20.50;91.80;;;;;;5070766;28;20056;-76
2023/04/22 11:55:22;;;;;;;8.70;6.53;;;20.50;91.90;;;;;;5069541;28;20036;-78
2023/04/22 11:58:13;;;;;;;4.97;2.63;;;20.50;90.70;;;;;;5070788;28;20056;-79
2023/04/22 12:00:41;;;;;;;6.32;4.57;;;20.40;91.80;;;;;;5046729;28;20626;-78
2023/04/22 12:03:15;;;;;;;7.22;4.95;;;20.40;91.00;;;;;;5068695;28;20059;-77
2023/04/22 12:05:46;;;;;;;5.28;3.25;;;20.30;90.70;;;;;;5070231;28;20090;-77
2023/04/22 12:08:21;;;;;;;6.00;4.35;;;20.20;90.90;;;;;;5069721;28;20032;-77
2023/04/22 12:10:57;;;;;;;8.70;4.30;;;20.20;90.50;;;;;;5063003;28;20117;-78
2023/04/22 12:13:25;;;;;;;8.15;4.93;;;20.00;90.70;;;;;;5067113;28;20033;-77
2023/04/22 12:16:03;;;;;;;6.13;4.78;;;19.90;90.70;;;;;;5071184;28;20029;-77
2023/04/22 12:18:32;;;;;;;6.95;3.55;;;19.90;91.00;;;;;;5069620;28;20028;-78
2023/04/22 12:21:11;;;;;;;7.43;4.00;;;19.80;91.00;;;;;;5068815;28;20032;-77
2023/04/22 12:23:44;;;;;;;9.80;5.00;;;19.80;91.20;;;;;;5067568;28;20436;-76
2023/04/22 12:26:15;;;;;;;8.70;5.68;;;19.70;90.90;;;;;;5068851;28;20021;-77
2023/04/22 12:28:42;;;;;;;6.90;4.72;;;19.70;90.80;;;;;;5070925;28;20032;-77
2023/04/22 12:31:14;;;;;;;6.40;4.00;;;19.60;90.80;;;;;;5069943;28;20020;-80
2023/04/22 12:33:40;;;;;;;7.63;5.10;;;19.60;90.90;;;;;;5066390;28;20025;-80